sensor_id;sensor_type;location;lat;lon;timestamp;temperature;humidity
31677;DHT22;18385;51.572;6.578;2022-10-20T00:01:25;11.90;67.70
31677;DHT22;18385;51.572;6.578;2022-10-20T00:03:51;11.90;67.70
31677;DHT22;18385;51.572;6.578;2022-10-20T00:06:28;11.90;67.70
31677;DHT22;18385;51.572;6.578;2022-10-20T00:08:56;11.90;67.80
31677;DHT22;18385;51.572;6.578;2022-10-20T00:11:23;11.80;67.80
31677;DHT22;18385;51.572;6.578;2022-10-20T00:13:50;11.90;67.80
31677;DHT22;18385;51.572;6.578;2022-10-20T00:16:17;11.90;67.90
31677;DHT22;18385;51.572;6.578;2022-10-20T00:18:43;11.90;67.90
31677;DHT22;18385;51.572;6.578;2022-10-20T00:21:17;11.90;67.90
31677;DHT22;18385;51.572;6.578;2022-10-20T00:23:44;11.90;68.00
31677;DHT22;18385;51.572;6.578;2022-10-20T00:26:13;11.90;68.00
31677;DHT22;18385;51.572;6.578;2022-10-20T00:28:38;11.90;68.00
31677;DHT22;18385;51.572;6.578;2022-10-20T00:31:05;11.90;68.00
31677;DHT22;18385;51.572;6.578;2022-10-20T00:33:31;11.90;68.10
31677;DHT22;18385;51.572;6.578;2022-10-20T00:36:01;11.90;68.10
31677;DHT22;18385;51.572;6.578;2022-10-20T00:38:27;11.90;68.20
31677;DHT22;18385;51.572;6.578;2022-10-20T00:40:52;11.80;68.10
31677;DHT22;18385;51.572;6.578;2022-10-20T00:43:19;11.90;68.20
31677;DHT22;18385;51.572;6.578;2022-10-20T00:45:51;11.90;68.30
31677;DHT22;18385;51.572;6.578;2022-10-20T00:48:21;11.90;68.30
31677;DHT22;18385;51.572;6.578;2022-10-20T00:50:49;11.90;68.30
31677;DHT22;18385;51.572;6.578;2022-10-20T00:53:17;11.90;68.30
31677;DHT22;18385;51.572;6.578;2022-10-20T00:55:45;11.80;68.30
31677;DHT22;18385;51.572;6.578;2022-10-20T00:58:13;11.80;68.30
31677;DHT22;18385;51.572;6.578;2022-10-20T01:00:39;11.80;68.30
31677;DHT22;18385;51.572;6.578;2022-10-20T01:03:07;11.80;68.30
31677;DHT22;18385;51.572;6.578;2022-10-20T01:05:38;11.80;68.40
31677;DHT22;18385;51.572;6.578;2022-10-20T01:08:03;11.80;68.50
31677;DHT22;18385;51.572;6.578;2022-10-20T01:10:36;11.80;68.50
31677;DHT22;18385;51.572;6.578;2022-10-20T01:13:14;11.80;68.60
31677;DHT22;18385;51.572;6.578;2022-10-20T01:16:01;11.70;68.60
31677;DHT22;18385;51.572;6.578;2022-10-20T01:18:59;11.80;68.70
31677;DHT22;18385;51.572;6.578;2022-10-20T01:24:29;11.70;68.60
31677;DHT22;18385;51.572;6.578;2022-10-20T01:30:18;11.60;68.80
31677;DHT22;18385;51.572;6.578;2022-10-20T01:35:17;11.60;69.00
31677;DHT22;18385;51.572;6.578;2022-10-20T01:40:58;11.60;69.10
31677;DHT22;18385;51.572;6.578;2022-10-20T01:43:28;11.60;69.10
31677;DHT22;18385;51.572;6.578;2022-10-20T01:45:57;11.60;69.10
31677;DHT22;18385;51.572;6.578;2022-10-20T01:48:27;11.60;69.10
31677;DHT22;18385;51.572;6.578;2022-10-20T01:50:53;11.60;69.10
31677;DHT22;18385;51.572;6.578;2022-10-20T01:53:19;11.60;69.10
31677;DHT22;18385;51.572;6.578;2022-10-20T01:55:49;11.60;69.20
31677;DHT22;18385;51.572;6.578;2022-10-20T02:00:41;11.60;69.00
31677;DHT22;18385;51.572;6.578;2022-10-20T02:03:36;11.60;69.20
31677;DHT22;18385;51.572;6.578;2022-10-20T02:06:23;11.60;69.30
31677;DHT22;18385;51.572;6.578;2022-10-20T02:08:54;11.50;69.20
31677;DHT22;18385;51.572;6.578;2022-10-20T02:11:33;11.50;69.30
31677;DHT22;18385;51.572;6.578;2022-10-20T02:14:01;11.50;69.30
31677;DHT22;18385;51.572;6.578;2022-10-20T02:16:41;11.50;69.40
31677;DHT22;18385;51.572;6.578;2022-10-20T02:19:10;11.50;69.40
31677;DHT22;18385;51.572;6.578;2022-10-20T02:21:37;11.50;69.40
31677;DHT22;18385;51.572;6.578;2022-10-20T02:24:05;11.60;69.50
31677;DHT22;18385;51.572;6.578;2022-10-20T02:26:33;11.60;69.60
31677;DHT22;18385;51.572;6.578;2022-10-20T02:29:03;11.60;69.60
31677;DHT22;18385;51.572;6.578;2022-10-20T02:31:30;11.60;69.60
31677;DHT22;18385;51.572;6.578;2022-10-20T02:33:56;11.60;69.50
31677;DHT22;18385;51.572;6.578;2022-10-20T02:36:27;11.60;69.50
31677;DHT22;18385;51.572;6.578;2022-10-20T02:38:53;11.60;69.50
31677;DHT22;18385;51.572;6.578;2022-10-20T02:41:19;11.60;69.50
31677;DHT22;18385;51.572;6.578;2022-10-20T02:43:44;11.60;69.50
31677;DHT22;18385;51.572;6.578;2022-10-20T02:46:10;11.60;69.50
31677;DHT22;18385;51.572;6.578;2022-10-20T02:48:36;11.60;69.60
31677;DHT22;18385;51.572;6.578;2022-10-20T02:51:03;11.60;69.70
31677;DHT22;18385;51.572;6.578;2022-10-20T02:53:30;11.70;70.50
31677;DHT22;18385;51.572;6.578;2022-10-20T02:55:56;11.70;69.70
31677;DHT22;18385;51.572;6.578;2022-10-20T02:58:22;11.60;69.70
31677;DHT22;18385;51.572;6.578;2022-10-20T03:00:48;11.70;69.80
31677;DHT22;18385;51.572;6.578;2022-10-20T03:03:15;11.70;69.80
31677;DHT22;18385;51.572;6.578;2022-10-20T03:05:41;11.60;69.70
31677;DHT22;18385;51.572;6.578;2022-10-20T03:08:09;11.60;69.70
31677;DHT22;18385;51.572;6.578;2022-10-20T03:10:35;11.60;69.80
31677;DHT22;18385;51.572;6.578;2022-10-20T03:13:02;11.60;69.80
31677;DHT22;18385;51.572;6.578;2022-10-20T03:15:28;11.60;69.80
31677;DHT22;18385;51.572;6.578;2022-10-20T03:17:54;11.60;69.80
31677;DHT22;18385;51.572;6.578;2022-10-20T03:20:19;11.60;69.80
31677;DHT22;18385;51.572;6.578;2022-10-20T03:22:45;11.60;69.80
31677;DHT22;18385;51.572;6.578;2022-10-20T03:25:10;11.60;69.80
31677;DHT22;18385;51.572;6.578;2022-10-20T03:27:36;11.60;69.90
31677;DHT22;18385;51.572;6.578;2022-10-20T03:30:02;11.60;69.90
31677;DHT22;18385;51.572;6.578;2022-10-20T03:32:28;11.60;69.90
31677;DHT22;18385;51.572;6.578;2022-10-20T03:34:54;11.60;69.90
31677;DHT22;18385;51.572;6.578;2022-10-20T03:37:19;11.60;69.90
31677;DHT22;18385;51.572;6.578;2022-10-20T03:39:45;11.60;69.90
31677;DHT22;18385;51.572;6.578;2022-10-20T03:42:11;11.60;69.90
31677;DHT22;18385;51.572;6.578;2022-10-20T03:44:36;11.60;69.90
31677;DHT22;18385;51.572;6.578;2022-10-20T03:47:03;11.60;69.90
31677;DHT22;18385;51.572;6.578;2022-10-20T03:49:28;11.60;70.00
31677;DHT22;18385;51.572;6.578;2022-10-20T03:51:55;11.60;70.00
31677;DHT22;18385;51.572;6.578;2022-10-20T03:54:21;11.50;69.90
31677;DHT22;18385;51.572;6.578;2022-10-20T03:56:47;11.50;69.90
31677;DHT22;18385;51.572;6.578;2022-10-20T03:59:12;11.50;69.90
31677;DHT22;18385;51.572;6.578;2022-10-20T04:01:42;11.50;69.90
31677;DHT22;18385;51.572;6.578;2022-10-20T04:04:08;11.50;70.00
31677;DHT22;18385;51.572;6.578;2022-10-20T04:06:34;11.50;70.00
31677;DHT22;18385;51.572;6.578;2022-10-20T04:08:59;11.50;70.00
31677;DHT22;18385;51.572;6.578;2022-10-20T04:11:25;11.50;70.00
31677;DHT22;18385;51.572;6.578;2022-10-20T04:13:51;11.50;70.10
31677;DHT22;18385;51.572;6.578;2022-10-20T04:16:17;11.50;70.90
31677;DHT22;18385;51.572;6.578;2022-10-20T04:18:43;11.60;70.20
31677;DHT22;18385;51.572;6.578;2022-10-20T04:21:08;11.60;70.20
31677;DHT22;18385;51.572;6.578;2022-10-20T04:23:34;11.70;70.20
31677;DHT22;18385;51.572;6.578;2022-10-20T04:26:07;11.70;70.20
31677;DHT22;18385;51.572;6.578;2022-10-20T04:28:33;11.70;70.20
31677;DHT22;18385;51.572;6.578;2022-10-20T04:30:59;11.70;70.20
31677;DHT22;18385;51.572;6.578;2022-10-20T04:33:24;11.80;70.30
31677;DHT22;18385;51.572;6.578;2022-10-20T04:35:59;11.80;70.30
31677;DHT22;18385;51.572;6.578;2022-10-20T04:38:24;11.80;70.30
31677;DHT22;18385;51.572;6.578;2022-10-20T04:40:59;11.90;70.30
31677;DHT22;18385;51.572;6.578;2022-10-20T04:43:25;11.90;70.30
31677;DHT22;18385;51.572;6.578;2022-10-20T04:45:51;11.90;70.30
31677;DHT22;18385;51.572;6.578;2022-10-20T04:48:23;11.90;70.20
31677;DHT22;18385;51.572;6.578;2022-10-20T04:51:06;12.00;70.20
31677;DHT22;18385;51.572;6.578;2022-10-20T04:53:32;12.00;70.20
31677;DHT22;18385;51.572;6.578;2022-10-20T04:55:58;12.00;71.00
31677;DHT22;18385;51.572;6.578;2022-10-20T04:58:26;12.00;70.20
31677;DHT22;18385;51.572;6.578;2022-10-20T05:00:52;12.00;70.20
31677;DHT22;18385;51.572;6.578;2022-10-20T05:03:18;12.00;70.20
31677;DHT22;18385;51.572;6.578;2022-10-20T05:05:45;12.00;70.20
31677;DHT22;18385;51.572;6.578;2022-10-20T05:08:11;12.00;70.20
31677;DHT22;18385;51.572;6.578;2022-10-20T05:10:36;12.00;70.30
31677;DHT22;18385;51.572;6.578;2022-10-20T05:13:02;12.00;70.30
31677;DHT22;18385;51.572;6.578;2022-10-20T05:15:28;12.00;70.40
31677;DHT22;18385;51.572;6.578;2022-10-20T05:17:53;12.10;70.40
31677;DHT22;18385;51.572;6.578;2022-10-20T05:20:19;12.10;70.30
31677;DHT22;18385;51.572;6.578;2022-10-20T05:22:45;12.10;70.30
31677;DHT22;18385;51.572;6.578;2022-10-20T05:25:10;12.20;70.30
31677;DHT22;18385;51.572;6.578;2022-10-20T05:27:36;12.20;70.30
31677;DHT22;18385;51.572;6.578;2022-10-20T05:30:02;12.20;70.30
31677;DHT22;18385;51.572;6.578;2022-10-20T05:32:28;12.10;70.10
31677;DHT22;18385;51.572;6.578;2022-10-20T05:34:53;12.20;70.30
31677;DHT22;18385;51.572;6.578;2022-10-20T05:37:19;12.10;70.30
31677;DHT22;18385;51.572;6.578;2022-10-20T05:39:45;12.10;70.30
31677;DHT22;18385;51.572;6.578;2022-10-20T05:42:11;12.20;70.50
31677;DHT22;18385;51.572;6.578;2022-10-20T05:44:36;12.10;70.40
31677;DHT22;18385;51.572;6.578;2022-10-20T05:47:02;12.10;70.40
31677;DHT22;18385;51.572;6.578;2022-10-20T05:49:28;12.10;70.40
31677;DHT22;18385;51.572;6.578;2022-10-20T05:51:53;12.10;70.40
31677;DHT22;18385;51.572;6.578;2022-10-20T05:54:19;12.10;70.50
31677;DHT22;18385;51.572;6.578;2022-10-20T05:56:45;12.10;70.60
31677;DHT22;18385;51.572;6.578;2022-10-20T05:59:11;12.10;70.70
31677;DHT22;18385;51.572;6.578;2022-10-20T06:01:37;12.10;70.60
31677;DHT22;18385;51.572;6.578;2022-10-20T06:04:12;12.00;70.60
31677;DHT22;18385;51.572;6.578;2022-10-20T06:06:38;12.10;70.70
31677;DHT22;18385;51.572;6.578;2022-10-20T06:09:05;12.10;70.70
31677;DHT22;18385;51.572;6.578;2022-10-20T06:11:32;12.10;70.70
31677;DHT22;18385;51.572;6.578;2022-10-20T06:13:58;12.10;70.70
31677;DHT22;18385;51.572;6.578;2022-10-20T06:16:25;12.20;70.70
31677;DHT22;18385;51.572;6.578;2022-10-20T06:18:51;12.20;70.70
31677;DHT22;18385;51.572;6.578;2022-10-20T06:21:23;12.20;70.80
31677;DHT22;18385;51.572;6.578;2022-10-20T06:23:49;12.20;70.80
31677;DHT22;18385;51.572;6.578;2022-10-20T06:26:18;12.20;70.70
31677;DHT22;18385;51.572;6.578;2022-10-20T06:28:46;12.20;70.80
31677;DHT22;18385;51.572;6.578;2022-10-20T06:31:24;12.20;70.80
31677;DHT22;18385;51.572;6.578;2022-10-20T06:33:51;12.30;70.80
31677;DHT22;18385;51.572;6.578;2022-10-20T06:36:18;12.30;70.80
31677;DHT22;18385;51.572;6.578;2022-10-20T06:38:44;12.30;70.80
31677;DHT22;18385;51.572;6.578;2022-10-20T06:41:13;12.30;70.70
31677;DHT22;18385;51.572;6.578;2022-10-20T06:43:39;12.40;70.70
31677;DHT22;18385;51.572;6.578;2022-10-20T06:46:07;12.40;70.60
31677;DHT22;18385;51.572;6.578;2022-10-20T06:48:34;12.40;70.60
31677;DHT22;18385;51.572;6.578;2022-10-20T06:51:02;12.50;70.60
31677;DHT22;18385;51.572;6.578;2022-10-20T06:53:28;12.50;70.50
31677;DHT22;18385;51.572;6.578;2022-10-20T06:56:00;12.60;70.60
31677;DHT22;18385;51.572;6.578;2022-10-20T06:58:26;12.60;70.50
31677;DHT22;18385;51.572;6.578;2022-10-20T07:01:00;12.70;70.50
31677;DHT22;18385;51.572;6.578;2022-10-20T07:03:27;12.70;70.40
31677;DHT22;18385;51.572;6.578;2022-10-20T07:05:54;12.80;70.40
31677;DHT22;18385;51.572;6.578;2022-10-20T07:08:19;12.90;70.30
31677;DHT22;18385;51.572;6.578;2022-10-20T07:10:45;13.00;70.30
31677;DHT22;18385;51.572;6.578;2022-10-20T07:13:11;13.00;70.20
31677;DHT22;18385;51.572;6.578;2022-10-20T07:15:36;13.10;70.10
31677;DHT22;18385;51.572;6.578;2022-10-20T07:18:02;13.20;70.00
31677;DHT22;18385;51.572;6.578;2022-10-20T07:20:28;13.20;70.00
31677;DHT22;18385;51.572;6.578;2022-10-20T07:22:53;13.20;70.00
31677;DHT22;18385;51.572;6.578;2022-10-20T07:25:19;13.30;69.90
31677;DHT22;18385;51.572;6.578;2022-10-20T07:27:47;13.40;70.00
31677;DHT22;18385;51.572;6.578;2022-10-20T07:30:13;13.50;69.90
31677;DHT22;18385;51.572;6.578;2022-10-20T07:32:39;13.60;69.80
31677;DHT22;18385;51.572;6.578;2022-10-20T07:35:04;13.70;69.70
31677;DHT22;18385;51.572;6.578;2022-10-20T07:37:30;13.80;69.60
31677;DHT22;18385;51.572;6.578;2022-10-20T07:39:56;13.90;69.50
31677;DHT22;18385;51.572;6.578;2022-10-20T07:42:21;14.00;69.40
31677;DHT22;18385;51.572;6.578;2022-10-20T07:44:47;14.20;69.30
31677;DHT22;18385;51.572;6.578;2022-10-20T07:47:13;14.30;69.10
31677;DHT22;18385;51.572;6.578;2022-10-20T07:49:38;14.30;69.00
31677;DHT22;18385;51.572;6.578;2022-10-20T07:52:04;14.40;68.90
31677;DHT22;18385;51.572;6.578;2022-10-20T07:54:30;14.50;68.90
31677;DHT22;18385;51.572;6.578;2022-10-20T07:56:56;14.60;68.80
31677;DHT22;18385;51.572;6.578;2022-10-20T07:59:22;14.60;68.70
31677;DHT22;18385;51.572;6.578;2022-10-20T08:01:48;14.70;68.70
31677;DHT22;18385;51.572;6.578;2022-10-20T08:04:14;14.80;68.60
31677;DHT22;18385;51.572;6.578;2022-10-20T08:06:40;14.80;68.50
31677;DHT22;18385;51.572;6.578;2022-10-20T08:09:06;14.90;68.50
31677;DHT22;18385;51.572;6.578;2022-10-20T08:11:32;15.00;68.50
31677;DHT22;18385;51.572;6.578;2022-10-20T08:13:58;15.10;68.50
31677;DHT22;18385;51.572;6.578;2022-10-20T08:16:23;15.20;68.30
31677;DHT22;18385;51.572;6.578;2022-10-20T08:18:50;15.30;68.30
31677;DHT22;18385;51.572;6.578;2022-10-20T08:21:17;15.40;68.20
31677;DHT22;18385;51.572;6.578;2022-10-20T08:23:45;15.50;68.30
31677;DHT22;18385;51.572;6.578;2022-10-20T08:26:15;15.60;68.30
31677;DHT22;18385;51.572;6.578;2022-10-20T08:28:41;15.80;68.30
31677;DHT22;18385;51.572;6.578;2022-10-20T08:31:07;16.00;68.50
31677;DHT22;18385;51.572;6.578;2022-10-20T08:33:33;16.20;68.10
31677;DHT22;18385;51.572;6.578;2022-10-20T08:36:08;16.40;67.80
31677;DHT22;18385;51.572;6.578;2022-10-20T08:38:35;16.60;67.60
31677;DHT22;18385;51.572;6.578;2022-10-20T08:41:01;16.70;67.40
31677;DHT22;18385;51.572;6.578;2022-10-20T08:43:29;16.80;67.30
31677;DHT22;18385;51.572;6.578;2022-10-20T08:45:56;17.00;67.20
31677;DHT22;18385;51.572;6.578;2022-10-20T08:48:28;17.20;67.10
31677;DHT22;18385;51.572;6.578;2022-10-20T08:50:54;17.30;66.80
31677;DHT22;18385;51.572;6.578;2022-10-20T08:53:21;17.50;66.70
31677;DHT22;18385;51.572;6.578;2022-10-20T08:55:48;17.60;66.50
31677;DHT22;18385;51.572;6.578;2022-10-20T08:58:19;17.80;66.40
31677;DHT22;18385;51.572;6.578;2022-10-20T09:00:46;17.80;66.10
31677;DHT22;18385;51.572;6.578;2022-10-20T09:03:18;17.90;66.00
31677;DHT22;18385;51.572;6.578;2022-10-20T09:05:49;18.00;65.90
31677;DHT22;18385;51.572;6.578;2022-10-20T09:08:15;18.10;65.80
31677;DHT22;18385;51.572;6.578;2022-10-20T09:10:49;18.10;65.70
31677;DHT22;18385;51.572;6.578;2022-10-20T09:13:17;18.10;65.60
31677;DHT22;18385;51.572;6.578;2022-10-20T09:15:47;18.20;65.70
31677;DHT22;18385;51.572;6.578;2022-10-20T09:18:13;18.20;65.70
31677;DHT22;18385;51.572;6.578;2022-10-20T09:20:55;18.30;65.60
31677;DHT22;18385;51.572;6.578;2022-10-20T09:23:24;18.40;65.40
31677;DHT22;18385;51.572;6.578;2022-10-20T09:25:52;18.50;65.30
31677;DHT22;18385;51.572;6.578;2022-10-20T09:28:26;18.50;65.20
31677;DHT22;18385;51.572;6.578;2022-10-20T09:30:56;18.60;65.10
31677;DHT22;18385;51.572;6.578;2022-10-20T09:33:30;18.70;65.00
31677;DHT22;18385;51.572;6.578;2022-10-20T09:36:04;18.80;65.00
31677;DHT22;18385;51.572;6.578;2022-10-20T09:38:33;18.80;64.70
31677;DHT22;18385;51.572;6.578;2022-10-20T09:41:35;18.80;64.60
31677;DHT22;18385;51.572;6.578;2022-10-20T09:44:01;18.80;64.60
31677;DHT22;18385;51.572;6.578;2022-10-20T09:46:36;18.90;64.70
31677;DHT22;18385;51.572;6.578;2022-10-20T09:49:05;19.00;64.40
31677;DHT22;18385;51.572;6.578;2022-10-20T09:51:31;19.00;64.40
31677;DHT22;18385;51.572;6.578;2022-10-20T09:54:03;19.00;64.30
31677;DHT22;18385;51.572;6.578;2022-10-20T09:56:39;19.00;64.00
31677;DHT22;18385;51.572;6.578;2022-10-20T09:59:16;19.00;63.80
31677;DHT22;18385;51.572;6.578;2022-10-20T10:01:58;18.80;63.90
31677;DHT22;18385;51.572;6.578;2022-10-20T10:04:38;18.70;64.10
31677;DHT22;18385;51.572;6.578;2022-10-20T10:07:27;18.70;64.30
31677;DHT22;18385;51.572;6.578;2022-10-20T10:10:06;18.70;64.40
31677;DHT22;18385;51.572;6.578;2022-10-20T10:12:32;18.70;64.20
31677;DHT22;18385;51.572;6.578;2022-10-20T10:17:39;18.60;64.20
31677;DHT22;18385;51.572;6.578;2022-10-20T10:22:38;18.60;64.20
31677;DHT22;18385;51.572;6.578;2022-10-20T10:25:05;18.70;64.30
31677;DHT22;18385;51.572;6.578;2022-10-20T10:27:35;18.80;64.20
31677;DHT22;18385;51.572;6.578;2022-10-20T10:32:59;18.90;64.70
31677;DHT22;18385;51.572;6.578;2022-10-20T10:35:41;18.90;64.20
31677;DHT22;18385;51.572;6.578;2022-10-20T10:38:09;19.00;63.90
31677;DHT22;18385;51.572;6.578;2022-10-20T10:46:07;19.20;63.70
31677;DHT22;18385;51.572;6.578;2022-10-20T10:55:28;19.40;63.00
31677;DHT22;18385;51.572;6.578;2022-10-20T11:00:12;19.20;63.10
31677;DHT22;18385;51.572;6.578;2022-10-20T11:02:59;19.10;63.10
31677;DHT22;18385;51.572;6.578;2022-10-20T11:08:25;19.00;63.40
31677;DHT22;18385;51.572;6.578;2022-10-20T11:13:41;19.10;63.40
31677;DHT22;18385;51.572;6.578;2022-10-20T11:16:17;19.00;63.20
31677;DHT22;18385;51.572;6.578;2022-10-20T11:27:15;18.80;63.30
31677;DHT22;18385;51.572;6.578;2022-10-20T11:29:55;18.70;63.30
31677;DHT22;18385;51.572;6.578;2022-10-20T11:37:29;18.70;63.40
31677;DHT22;18385;51.572;6.578;2022-10-20T11:40:19;18.70;63.40
31677;DHT22;18385;51.572;6.578;2022-10-20T11:48:21;18.50;63.80
31677;DHT22;18385;51.572;6.578;2022-10-20T11:50:57;18.50;63.80
31677;DHT22;18385;51.572;6.578;2022-10-20T11:53:51;18.50;64.10
31677;DHT22;18385;51.572;6.578;2022-10-20T12:07:50;18.50;64.60
31677;DHT22;18385;51.572;6.578;2022-10-20T12:10:33;18.50;64.50
31677;DHT22;18385;51.572;6.578;2022-10-20T12:16:03;18.40;64.70
31677;DHT22;18385;51.572;6.578;2022-10-20T12:18:31;18.30;64.70
31677;DHT22;18385;51.572;6.578;2022-10-20T12:26:35;18.10;65.00
31677;DHT22;18385;51.572;6.578;2022-10-20T12:37:16;17.70;65.70
31677;DHT22;18385;51.572;6.578;2022-10-20T12:39:42;17.70;66.00
31677;DHT22;18385;51.572;6.578;2022-10-20T12:42:22;17.70;66.10
31677;DHT22;18385;51.572;6.578;2022-10-20T12:44:48;17.80;66.20
31677;DHT22;18385;51.572;6.578;2022-10-20T12:47:22;17.90;66.10
31677;DHT22;18385;51.572;6.578;2022-10-20T12:50:05;18.00;66.10
31677;DHT22;18385;51.572;6.578;2022-10-20T12:52:38;18.10;66.10
31677;DHT22;18385;51.572;6.578;2022-10-20T12:57:39;18.50;66.30
31677;DHT22;18385;51.572;6.578;2022-10-20T13:02:56;18.90;65.60
31677;DHT22;18385;51.572;6.578;2022-10-20T13:10:27;18.90;65.10
31677;DHT22;18385;51.572;6.578;2022-10-20T13:23:46;19.00;65.90
31677;DHT22;18385;51.572;6.578;2022-10-20T13:26:21;19.10;65.80
31677;DHT22;18385;51.572;6.578;2022-10-20T13:28:49;19.20;65.70
31677;DHT22;18385;51.572;6.578;2022-10-20T13:31:32;19.30;65.60
31677;DHT22;18385;51.572;6.578;2022-10-20T13:34:40;19.40;65.60
31677;DHT22;18385;51.572;6.578;2022-10-20T13:40:07;19.70;65.60
31677;DHT22;18385;51.572;6.578;2022-10-20T13:51:03;20.30;64.90
31677;DHT22;18385;51.572;6.578;2022-10-20T13:53:35;20.30;64.60
31677;DHT22;18385;51.572;6.578;2022-10-20T13:56:07;20.30;65.30
31677;DHT22;18385;51.572;6.578;2022-10-20T13:58:33;20.20;64.50
31677;DHT22;18385;51.572;6.578;2022-10-20T14:01:00;20.10;64.60
31677;DHT22;18385;51.572;6.578;2022-10-20T14:03:26;20.10;64.70
31677;DHT22;18385;51.572;6.578;2022-10-20T14:05:53;20.40;67.10
31677;DHT22;18385;51.572;6.578;2022-10-20T14:08:19;21.40;66.80
31677;DHT22;18385;51.572;6.578;2022-10-20T14:10:53;22.20;65.20
31677;DHT22;18385;51.572;6.578;2022-10-20T14:13:23;22.70;64.00
31677;DHT22;18385;51.572;6.578;2022-10-20T14:15:53;23.20;63.50
31677;DHT22;18385;51.572;6.578;2022-10-20T14:21:04;23.80;61.80
31677;DHT22;18385;51.572;6.578;2022-10-20T14:23:37;24.00;61.30
31677;DHT22;18385;51.572;6.578;2022-10-20T14:26:09;24.50;61.00
31677;DHT22;18385;51.572;6.578;2022-10-20T14:28:36;24.30;59.30
31677;DHT22;18385;51.572;6.578;2022-10-20T14:31:03;23.40;59.00
31677;DHT22;18385;51.572;6.578;2022-10-20T14:33:32;22.60;59.80
31677;DHT22;18385;51.572;6.578;2022-10-20T14:35:59;22.00;60.70
31677;DHT22;18385;51.572;6.578;2022-10-20T14:38:36;21.50;61.60
31677;DHT22;18385;51.572;6.578;2022-10-20T14:41:05;20.90;62.00
31677;DHT22;18385;51.572;6.578;2022-10-20T14:46:05;20.20;63.10
31677;DHT22;18385;51.572;6.578;2022-10-20T14:48:39;19.90;63.50
31677;DHT22;18385;51.572;6.578;2022-10-20T14:54:12;19.90;64.30
31677;DHT22;18385;51.572;6.578;2022-10-20T14:56:43;20.10;64.20
31677;DHT22;18385;51.572;6.578;2022-10-20T14:59:17;20.10;63.90
31677;DHT22;18385;51.572;6.578;2022-10-20T15:01:59;20.00;63.50
31677;DHT22;18385;51.572;6.578;2022-10-20T15:04:28;19.80;63.70
31677;DHT22;18385;51.572;6.578;2022-10-20T15:09:46;19.40;65.00
31677;DHT22;18385;51.572;6.578;2022-10-20T15:12:23;19.30;64.50
31677;DHT22;18385;51.572;6.578;2022-10-20T15:15:04;19.20;64.80
31677;DHT22;18385;51.572;6.578;2022-10-20T15:22:55;19.00;65.10
31677;DHT22;18385;51.572;6.578;2022-10-20T15:25:22;19.00;65.30
31677;DHT22;18385;51.572;6.578;2022-10-20T15:27:48;18.90;65.20
31677;DHT22;18385;51.572;6.578;2022-10-20T15:30:19;18.90;65.30
31677;DHT22;18385;51.572;6.578;2022-10-20T15:32:46;18.90;65.50
31677;DHT22;18385;51.572;6.578;2022-10-20T15:35:17;18.80;65.50
31677;DHT22;18385;51.572;6.578;2022-10-20T15:37:47;18.80;65.60
31677;DHT22;18385;51.572;6.578;2022-10-20T15:40:13;18.80;65.60
31677;DHT22;18385;51.572;6.578;2022-10-20T15:42:38;18.80;65.50
31677;DHT22;18385;51.572;6.578;2022-10-20T15:45:15;18.70;65.80
31677;DHT22;18385;51.572;6.578;2022-10-20T15:47:41;18.70;65.90
31677;DHT22;18385;51.572;6.578;2022-10-20T15:50:07;18.70;66.00
31677;DHT22;18385;51.572;6.578;2022-10-20T15:52:33;18.70;66.70
31677;DHT22;18385;51.572;6.578;2022-10-20T15:55:01;18.70;66.00
31677;DHT22;18385;51.572;6.578;2022-10-20T15:57:26;18.60;66.10
31677;DHT22;18385;51.572;6.578;2022-10-20T15:59:53;18.60;66.10
31677;DHT22;18385;51.572;6.578;2022-10-20T16:02:18;18.60;66.30
31677;DHT22;18385;51.572;6.578;2022-10-20T16:04:44;18.50;66.30
31677;DHT22;18385;51.572;6.578;2022-10-20T16:07:09;18.50;66.30
31677;DHT22;18385;51.572;6.578;2022-10-20T16:09:35;18.50;66.30
31677;DHT22;18385;51.572;6.578;2022-10-20T16:12:01;18.50;66.30
31677;DHT22;18385;51.572;6.578;2022-10-20T16:14:26;18.50;66.30
31677;DHT22;18385;51.572;6.578;2022-10-20T16:16:52;18.40;66.40
31677;DHT22;18385;51.572;6.578;2022-10-20T16:19:17;18.40;66.50
31677;DHT22;18385;51.572;6.578;2022-10-20T16:21:43;18.40;66.60
31677;DHT22;18385;51.572;6.578;2022-10-20T16:24:09;18.30;66.60
31677;DHT22;18385;51.572;6.578;2022-10-20T16:26:35;18.30;66.70
31677;DHT22;18385;51.572;6.578;2022-10-20T16:29:01;18.20;66.80
31677;DHT22;18385;51.572;6.578;2022-10-20T16:31:27;18.20;66.80
31677;DHT22;18385;51.572;6.578;2022-10-20T16:33:53;18.20;66.90
31677;DHT22;18385;51.572;6.578;2022-10-20T16:36:19;18.10;67.00
31677;DHT22;18385;51.572;6.578;2022-10-20T16:38:46;18.10;67.20
31677;DHT22;18385;51.572;6.578;2022-10-20T16:41:13;18.00;67.30
31677;DHT22;18385;51.572;6.578;2022-10-20T16:43:42;18.00;67.30
31677;DHT22;18385;51.572;6.578;2022-10-20T16:46:12;18.00;67.40
31677;DHT22;18385;51.572;6.578;2022-10-20T16:48:38;18.00;67.50
31677;DHT22;18385;51.572;6.578;2022-10-20T16:51:06;17.90;67.40
31677;DHT22;18385;51.572;6.578;2022-10-20T16:53:32;17.90;67.50
31677;DHT22;18385;51.572;6.578;2022-10-20T16:55:57;17.80;67.50
31677;DHT22;18385;51.572;6.578;2022-10-20T16:58:23;17.80;67.70
31677;DHT22;18385;51.572;6.578;2022-10-20T17:01:16;17.70;67.70
31677;DHT22;18385;51.572;6.578;2022-10-20T17:03:44;17.70;67.80
31677;DHT22;18385;51.572;6.578;2022-10-20T17:06:11;17.70;67.90
31677;DHT22;18385;51.572;6.578;2022-10-20T17:08:38;17.60;67.90
31677;DHT22;18385;51.572;6.578;2022-10-20T17:11:16;17.60;68.00
31677;DHT22;18385;51.572;6.578;2022-10-20T17:13:42;17.60;68.10
31677;DHT22;18385;51.572;6.578;2022-10-20T17:16:10;17.50;68.10
31677;DHT22;18385;51.572;6.578;2022-10-20T17:18:37;17.50;68.20
31677;DHT22;18385;51.572;6.578;2022-10-20T17:21:03;17.50;68.20
31677;DHT22;18385;51.572;6.578;2022-10-20T17:23:34;17.50;68.40
31677;DHT22;18385;51.572;6.578;2022-10-20T17:26:01;17.50;68.40
31677;DHT22;18385;51.572;6.578;2022-10-20T17:28:34;17.50;68.40
31677;DHT22;18385;51.572;6.578;2022-10-20T17:31:00;17.50;68.40
31677;DHT22;18385;51.572;6.578;2022-10-20T17:33:27;17.50;68.40
31677;DHT22;18385;51.572;6.578;2022-10-20T17:35:54;17.60;68.50
31677;DHT22;18385;51.572;6.578;2022-10-20T17:38:21;17.50;68.40
31677;DHT22;18385;51.572;6.578;2022-10-20T17:40:47;17.50;68.40
31677;DHT22;18385;51.572;6.578;2022-10-20T17:43:13;17.50;68.40
31677;DHT22;18385;51.572;6.578;2022-10-20T17:45:39;17.50;68.50
31677;DHT22;18385;51.572;6.578;2022-10-20T17:48:06;17.50;68.50
31677;DHT22;18385;51.572;6.578;2022-10-20T17:50:32;17.50;68.50
31677;DHT22;18385;51.572;6.578;2022-10-20T17:52:59;17.50;68.50
31677;DHT22;18385;51.572;6.578;2022-10-20T17:55:25;17.60;68.60
31677;DHT22;18385;51.572;6.578;2022-10-20T17:57:51;17.50;68.60
31677;DHT22;18385;51.572;6.578;2022-10-20T18:00:17;17.50;68.60